createdAt,value
2023-05-17T00:00:43.652Z,11.63
2023-05-17T00:03:10.918Z,12.02
2023-05-17T00:05:37.993Z,9.82
2023-05-17T00:08:05.676Z,11.85
2023-05-17T00:10:32.657Z,15.45
2023-05-17T00:13:01.046Z,15.05
2023-05-17T00:17:57.521Z,13.48
2023-05-17T00:22:51.522Z,9.20
2023-05-17T00:25:18.486Z,10.60
2023-05-17T00:27:45.863Z,10.27
2023-05-17T00:30:14.720Z,8.50
2023-05-17T00:32:41.731Z,9.45
2023-05-17T00:35:08.946Z,10.85
2023-05-17T00:37:35.973Z,9.35
2023-05-17T00:40:05.493Z,9.40
2023-05-17T00:42:32.518Z,8.48
2023-05-17T00:44:59.677Z,8.70
2023-05-17T00:47:28.220Z,8.75
2023-05-17T00:49:55.381Z,10.15
2023-05-17T00:52:22.411Z,11.48
2023-05-17T00:54:51.036Z,13.13
2023-05-17T00:57:18.440Z,9.77
2023-05-17T00:59:45.733Z,7.47
2023-05-17T01:02:12.728Z,10.68
2023-05-17T01:04:42.322Z,10.52
2023-05-17T01:07:10.578Z,12.70
2023-05-17T01:09:38.415Z,11.25
2023-05-17T01:12:10.364Z,11.50
2023-05-17T01:14:44.021Z,12.40
2023-05-17T01:17:14.628Z,9.77
2023-05-17T01:19:53.855Z,8.23
2023-05-17T01:22:28.853Z,13.10
2023-05-17T01:27:28.982Z,9.75
2023-05-17T01:29:56.823Z,9.18
2023-05-17T01:32:25.099Z,9.65
2023-05-17T01:34:52.415Z,10.30
2023-05-17T01:37:19.406Z,13.23
2023-05-17T01:39:46.665Z,8.90
2023-05-17T01:42:17.307Z,10.02
2023-05-17T01:44:51.112Z,8.25
2023-05-17T01:47:23.584Z,8.55
2023-05-17T01:49:54.356Z,8.45
2023-05-17T01:52:27.724Z,7.20
2023-05-17T01:54:57.761Z,10.68
2023-05-17T01:57:28.797Z,9.32
2023-05-17T02:00:00.307Z,8.93
2023-05-17T02:02:29.572Z,9.63
2023-05-17T02:04:58.583Z,8.60
2023-05-17T02:07:25.617Z,9.77
2023-05-17T02:09:55.600Z,8.77
2023-05-17T02:12:22.537Z,13.13
2023-05-17T02:14:49.692Z,7.40
2023-05-17T02:17:18.685Z,8.18
2023-05-17T02:22:12.759Z,9.88
2023-05-17T02:24:39.750Z,12.95
2023-05-17T02:27:07.090Z,6.65
2023-05-17T02:29:34.134Z,10.65
2023-05-17T02:32:01.241Z,13.68
2023-05-17T02:34:29.649Z,8.20
2023-05-17T02:39:23.931Z,10.02
2023-05-17T02:41:50.882Z,11.43
2023-05-17T02:44:17.828Z,10.40
2023-05-17T02:46:44.836Z,11.13
2023-05-17T02:49:13.106Z,8.50
2023-05-17T02:51:41.993Z,7.20
2023-05-17T02:54:09.002Z,11.32
2023-05-17T02:56:36.001Z,12.30
2023-05-17T02:59:03.349Z,8.82
2023-05-17T03:01:31.175Z,6.25
2023-05-17T03:03:58.293Z,14.45
2023-05-17T03:06:25.571Z,10.82
2023-05-17T03:08:54.312Z,12.70
2023-05-17T03:11:22.084Z,7.18
2023-05-17T03:13:51.787Z,13.73
2023-05-17T03:16:22.128Z,10.57
2023-05-17T03:18:51.036Z,8.02
2023-05-17T03:21:18.054Z,11.23
2023-05-17T03:23:45.193Z,8.05
2023-05-17T03:26:14.151Z,8.10
2023-05-17T03:28:46.638Z,10.15
2023-05-17T03:31:13.797Z,14.43
2023-05-17T03:33:40.837Z,12.63
2023-05-17T03:36:08.376Z,13.15
2023-05-17T03:38:36.242Z,11.63
2023-05-17T03:41:03.798Z,12.30
2023-05-17T03:43:32.734Z,9.93
2023-05-17T03:46:01.171Z,11.98
2023-05-17T03:48:29.535Z,15.68
2023-05-17T03:50:56.637Z,16.98
2023-05-17T03:53:23.761Z,17.20
2023-05-17T03:55:51.140Z,15.23
2023-05-17T03:58:18.412Z,13.95
2023-05-17T04:00:46.952Z,15.65
2023-05-17T04:03:19.882Z,11.63
2023-05-17T04:05:47.227Z,13.43
2023-05-17T04:08:14.416Z,15.98
2023-05-17T04:10:42.291Z,19.02
2023-05-17T04:13:09.687Z,16.35
2023-05-17T04:15:37.886Z,16.83
2023-05-17T04:18:07.605Z,15.55
2023-05-17T04:20:34.714Z,16.30
2023-05-17T04:23:02.024Z,19.20
2023-05-17T04:25:32.090Z,19.33
2023-05-17T04:27:59.165Z,24.77
2023-05-17T04:30:26.256Z,17.88
2023-05-17T04:32:53.386Z,18.33
2023-05-17T04:35:22.004Z,19.42
2023-05-17T04:37:52.940Z,22.63
2023-05-17T04:40:21.967Z,17.83
2023-05-17T04:42:50.446Z,12.38
2023-05-17T04:45:18.067Z,15.05
2023-05-17T04:47:45.234Z,17.70
2023-05-17T04:50:12.727Z,17.35
2023-05-17T04:55:25.983Z,14.85
2023-05-17T04:57:53.220Z,15.95
2023-05-17T05:00:22.999Z,16.08
2023-05-17T05:02:57.917Z,18.80
2023-05-17T05:05:25.863Z,16.52
2023-05-17T05:07:54.302Z,16.45
2023-05-17T05:10:21.666Z,16.52
2023-05-17T05:12:49.049Z,13.60
2023-05-17T05:15:16.565Z,13.18
2023-05-17T05:17:50.835Z,17.50
2023-05-17T05:20:19.128Z,24.70
2023-05-17T05:22:46.089Z,15.40
2023-05-17T05:25:15.427Z,18.23
2023-05-17T05:27:42.355Z,16.00
2023-05-17T05:30:10.450Z,17.33
2023-05-17T05:32:38.072Z,14.18
2023-05-17T05:35:06.018Z,14.15
2023-05-17T05:37:33.076Z,18.60
2023-05-17T05:40:00.318Z,17.42
2023-05-17T05:42:29.678Z,15.73
2023-05-17T05:44:56.664Z,15.27
2023-05-17T05:47:25.643Z,17.67
2023-05-17T05:49:52.797Z,14.05
2023-05-17T05:52:19.751Z,11.68
2023-05-17T05:54:46.841Z,14.85
2023-05-17T05:57:13.826Z,13.50
2023-05-17T05:59:42.409Z,13.25
2023-05-17T06:02:09.860Z,12.48
2023-05-17T06:04:45.185Z,13.88
2023-05-17T06:07:12.841Z,12.18
2023-05-17T06:09:39.823Z,14.77
2023-05-17T06:12:06.913Z,12.52
2023-05-17T06:14:33.950Z,12.80
2023-05-17T06:17:02.296Z,12.77
2023-05-17T06:19:29.359Z,15.23
2023-05-17T06:21:56.356Z,12.90
2023-05-17T06:24:23.441Z,11.93
2023-05-17T06:26:50.455Z,10.82
2023-05-17T06:29:17.432Z,11.73
2023-05-17T06:31:44.336Z,10.82
2023-05-17T06:34:12.722Z,13.60
2023-05-17T06:36:40.798Z,9.93
2023-05-17T06:39:07.799Z,15.60
2023-05-17T06:41:35.058Z,10.40
2023-05-17T06:44:02.167Z,10.13
2023-05-17T06:46:29.203Z,8.63
2023-05-17T06:48:56.394Z,12.10
2023-05-17T06:51:24.903Z,11.90
2023-05-17T06:53:51.902Z,11.23
2023-05-17T06:56:18.832Z,8.60
2023-05-17T06:58:45.828Z,10.45
2023-05-17T07:01:13.021Z,11.25
2023-05-17T07:03:40.110Z,13.50
2023-05-17T07:06:07.500Z,10.07
2023-05-17T07:08:35.905Z,8.77
2023-05-17T07:11:03.230Z,10.32
2023-05-17T07:13:31.478Z,12.05
2023-05-17T07:15:58.683Z,12.00
2023-05-17T07:18:26.117Z,11.63
2023-05-17T07:20:53.262Z,11.52
2023-05-17T07:23:20.504Z,14.27
2023-05-17T07:25:50.930Z,13.38
2023-05-17T07:28:17.914Z,18.25
2023-05-17T07:30:44.894Z,14.70
2023-05-17T07:33:11.978Z,10.73
2023-05-17T07:35:38.986Z,12.32
2023-05-17T07:38:05.975Z,10.52
2023-05-17T07:40:33.053Z,13.32
2023-05-17T07:43:01.439Z,11.88
2023-05-17T07:45:28.971Z,13.63
2023-05-17T07:47:56.878Z,14.30
2023-05-17T07:50:24.362Z,13.52
2023-05-17T07:52:51.955Z,10.98
2023-05-17T07:55:19.831Z,9.75
2023-05-17T07:57:47.881Z,11.80
2023-05-17T08:00:19.337Z,7.82
2023-05-17T08:02:46.921Z,15.13
2023-05-17T08:05:13.958Z,11.75
2023-05-17T08:07:41.068Z,11.55
2023-05-17T08:10:08.427Z,10.98
2023-05-17T08:12:35.524Z,10.45
2023-05-17T08:15:02.533Z,12.82
2023-05-17T08:17:30.995Z,9.85
2023-05-17T08:19:58.076Z,9.75
2023-05-17T08:22:25.120Z,11.43
2023-05-17T08:24:52.178Z,15.18
2023-05-17T08:27:19.187Z,9.10
2023-05-17T08:29:46.377Z,14.00
2023-05-17T08:32:13.336Z,11.10
2023-05-17T08:34:41.649Z,9.65
2023-05-17T08:37:08.636Z,13.38
2023-05-17T08:39:35.780Z,8.77
2023-05-17T08:42:03.343Z,10.90
2023-05-17T08:44:31.372Z,8.73
2023-05-17T08:46:59.335Z,13.98
2023-05-17T08:51:58.074Z,9.75
2023-05-17T08:54:25.049Z,10.40
2023-05-17T08:56:54.489Z,11.32
2023-05-17T08:59:22.091Z,10.48
2023-05-17T09:01:52.057Z,12.18
2023-05-17T09:04:19.088Z,12.00
2023-05-17T09:06:46.119Z,10.75
2023-05-17T09:09:14.505Z,13.10
2023-05-17T09:11:41.816Z,9.25
2023-05-17T09:14:09.224Z,7.28
2023-05-17T09:16:37.467Z,10.32
2023-05-17T09:19:05.816Z,9.07
2023-05-17T09:21:34.922Z,13.30
2023-05-17T09:24:07.152Z,8.98
2023-05-17T09:26:40.524Z,10.70
2023-05-17T09:29:11.640Z,11.02
2023-05-17T09:31:39.110Z,8.13
2023-05-17T09:34:08.287Z,7.68
2023-05-17T09:36:36.581Z,13.57
2023-05-17T09:41:40.712Z,12.13
2023-05-17T09:44:09.992Z,12.05
2023-05-17T09:46:41.376Z,12.23
2023-05-17T09:49:09.463Z,13.15
2023-05-17T09:56:31.380Z,9.45
2023-05-17T10:01:28.677Z,8.50
2023-05-17T10:03:56.708Z,10.13
2023-05-17T10:09:13.372Z,7.57
2023-05-17T10:11:41.897Z,13.15
2023-05-17T10:14:12.239Z,14.45
2023-05-17T10:16:41.541Z,12.60
2023-05-17T10:19:09.250Z,9.55
2023-05-17T10:21:37.046Z,10.30
2023-05-17T10:24:05.218Z,11.15
2023-05-17T10:26:33.192Z,14.85
2023-05-17T10:31:29.960Z,8.52
2023-05-17T10:33:59.202Z,10.82
2023-05-17T10:36:26.423Z,9.02
2023-05-17T10:38:53.604Z,12.43
2023-05-17T10:41:23.103Z,7.45
2023-05-17T10:43:51.023Z,12.77
2023-05-17T10:46:21.444Z,12.18
2023-05-17T10:48:49.197Z,7.28
2023-05-17T10:51:24.023Z,8.85
2023-05-17T10:54:11.679Z,6.95
2023-05-17T10:56:43.398Z,11.43
2023-05-17T10:59:24.486Z,9.05
2023-05-17T11:01:54.366Z,8.45
2023-05-17T11:04:24.367Z,10.00
2023-05-17T11:07:25.123Z,10.68
2023-05-17T11:09:54.426Z,7.95
2023-05-17T11:12:31.495Z,8.55
2023-05-17T11:15:00.879Z,8.85
2023-05-17T11:17:29.080Z,10.88
2023-05-17T11:19:57.419Z,8.45
2023-05-17T11:22:26.834Z,7.13
2023-05-17T11:24:56.827Z,13.15
2023-05-17T11:27:28.084Z,9.38
2023-05-17T11:29:55.672Z,10.13
2023-05-17T11:32:28.059Z,13.13
2023-05-17T11:34:55.202Z,8.48
2023-05-17T11:37:32.783Z,9.55
2023-05-17T11:40:06.127Z,10.00
2023-05-17T11:42:33.695Z,13.35
2023-05-17T11:45:01.756Z,10.38
2023-05-17T11:47:29.209Z,8.75
2023-05-17T11:50:00.762Z,8.52
2023-05-17T11:52:29.134Z,10.27
2023-05-17T11:54:58.055Z,13.52
2023-05-17T11:57:30.640Z,11.90
2023-05-17T12:00:01.621Z,10.40
2023-05-17T12:02:29.197Z,11.85
2023-05-17T12:04:56.358Z,9.15
2023-05-17T12:07:23.962Z,8.93
2023-05-17T12:09:51.079Z,8.95
2023-05-17T12:12:21.917Z,9.57
2023-05-17T12:14:50.644Z,7.47
2023-05-17T12:17:24.130Z,13.75
2023-05-17T12:19:54.057Z,12.80
2023-05-17T12:22:21.364Z,15.02
2023-05-17T12:24:48.374Z,9.18
2023-05-17T12:27:29.976Z,12.50
2023-05-17T12:29:56.969Z,10.85
2023-05-17T12:32:24.948Z,8.70
2023-05-17T12:37:18.916Z,7.55
2023-05-17T12:39:46.277Z,15.45
2023-05-17T12:42:13.410Z,12.30
2023-05-17T12:44:41.726Z,14.15
2023-05-17T12:47:10.376Z,9.13
2023-05-17T12:49:40.687Z,12.88
2023-05-17T12:52:07.892Z,8.73
2023-05-17T12:54:34.874Z,9.18
2023-05-17T12:57:12.439Z,13.65
2023-05-17T12:59:48.200Z,12.38
2023-05-17T13:02:15.670Z,8.48
2023-05-17T13:04:43.623Z,10.43
2023-05-17T13:09:47.206Z,8.30
2023-05-17T13:12:19.454Z,12.02
2023-05-17T13:14:49.088Z,7.80
2023-05-17T13:17:20.984Z,8.88
2023-05-17T13:19:48.226Z,7.13
2023-05-17T13:22:15.949Z,14.23
2023-05-17T13:24:44.793Z,11.35
2023-05-17T13:27:12.069Z,10.10
2023-05-17T13:29:40.890Z,9.65
2023-05-17T13:32:10.569Z,10.98
2023-05-17T13:34:37.697Z,12.48
2023-05-17T13:37:05.923Z,7.85
2023-05-17T13:39:34.243Z,10.32
2023-05-17T13:42:01.341Z,11.63
2023-05-17T13:44:28.381Z,9.57
2023-05-17T13:46:55.522Z,9.60
2023-05-17T13:49:23.878Z,12.65
2023-05-17T13:51:50.954Z,15.55
2023-05-17T13:54:20.241Z,8.85
2023-05-17T13:56:47.196Z,9.70
2023-05-17T13:59:14.134Z,10.00
2023-05-17T14:01:41.533Z,9.30
2023-05-17T14:04:08.714Z,11.48
2023-05-17T14:06:37.069Z,9.43
2023-05-17T14:09:04.178Z,9.32
2023-05-17T14:11:31.193Z,8.65
2023-05-17T14:13:59.113Z,10.27
2023-05-17T14:16:26.180Z,8.95
2023-05-17T14:18:53.253Z,8.82
2023-05-17T14:21:20.392Z,11.20
2023-05-17T14:23:48.752Z,7.63
2023-05-17T14:26:16.050Z,5.25
2023-05-17T14:28:43.009Z,8.20
2023-05-17T14:31:10.775Z,9.85
2023-05-17T14:33:37.928Z,7.78
2023-05-17T14:36:05.267Z,7.72
2023-05-17T14:38:32.239Z,17.50
2023-05-17T14:41:01.310Z,9.63
2023-05-17T14:43:28.551Z,8.27
2023-05-17T14:45:55.541Z,10.50
2023-05-17T14:48:22.953Z,7.47
2023-05-17T14:50:50.083Z,4.38
2023-05-17T14:53:17.252Z,9.07
2023-05-17T14:55:44.881Z,10.40
2023-05-17T14:58:13.807Z,6.00
2023-05-17T15:00:42.008Z,7.25
2023-05-17T15:03:09.322Z,8.15
2023-05-17T15:05:38.881Z,7.07
2023-05-17T15:08:06.099Z,5.93
2023-05-17T15:10:33.200Z,5.40
2023-05-17T15:13:00.364Z,5.25
2023-05-17T15:15:30.147Z,7.82
2023-05-17T15:17:58.201Z,6.07
2023-05-17T15:20:25.370Z,8.13
2023-05-17T15:22:52.666Z,7.95
2023-05-17T15:25:19.562Z,9.70
2023-05-17T15:27:46.731Z,11.30
2023-05-17T15:30:14.619Z,9.65
2023-05-17T15:32:43.052Z,5.95
2023-05-17T15:35:10.283Z,5.40
2023-05-17T15:37:37.199Z,7.70
2023-05-17T15:40:09.312Z,10.88
2023-05-17T15:42:36.384Z,7.78
2023-05-17T15:45:03.456Z,9.60
2023-05-17T15:47:42.646Z,8.25
2023-05-17T15:50:12.489Z,10.48
2023-05-17T15:52:39.636Z,9.90
2023-05-17T15:55:07.082Z,7.95
2023-05-17T15:57:34.018Z,11.07
2023-05-17T16:00:01.073Z,5.95
2023-05-17T16:02:28.125Z,7.90
2023-05-17T16:04:55.187Z,6.00
2023-05-17T16:07:26.341Z,7.68
2023-05-17T16:09:53.473Z,6.35
2023-05-17T16:12:20.556Z,10.57
2023-05-17T16:14:47.877Z,5.07
2023-05-17T16:17:14.855Z,7.15
2023-05-17T16:19:41.861Z,10.73
2023-05-17T16:22:09.680Z,6.20
2023-05-17T16:24:38.133Z,5.78
2023-05-17T16:27:07.886Z,7.15
2023-05-17T16:29:40.020Z,7.13
2023-05-17T16:32:07.930Z,13.73
2023-05-17T16:34:34.952Z,10.60
2023-05-17T16:37:02.523Z,9.02
2023-05-17T16:39:29.883Z,5.72
2023-05-17T16:41:58.204Z,8.35
2023-05-17T16:44:25.177Z,7.43
2023-05-17T16:46:52.223Z,8.95
2023-05-17T16:49:19.202Z,10.18
2023-05-17T16:51:46.285Z,8.30
2023-05-17T16:54:13.193Z,10.65
2023-05-17T16:56:40.103Z,7.47
2023-05-17T16:59:08.538Z,8.25
2023-05-17T17:01:35.678Z,6.22
2023-05-17T17:04:03.456Z,5.30
2023-05-17T17:06:31.481Z,7.22
2023-05-17T17:08:58.487Z,5.72
2023-05-17T17:11:26.283Z,6.10
2023-05-17T17:13:53.601Z,9.30
2023-05-17T17:16:22.704Z,5.75
2023-05-17T17:18:49.876Z,5.57
2023-05-17T17:21:17.118Z,5.00
2023-05-17T17:23:44.557Z,7.82
2023-05-17T17:26:18.852Z,11.13
2023-05-17T17:28:46.194Z,8.55
2023-05-17T17:31:13.217Z,8.23
2023-05-17T17:33:41.613Z,8.02
2023-05-17T17:36:09.355Z,8.48
2023-05-17T17:38:36.366Z,5.97
2023-05-17T17:41:03.717Z,7.38
2023-05-17T17:43:30.675Z,9.95
2023-05-17T17:45:57.669Z,5.13
2023-05-17T17:48:25.674Z,3.15
2023-05-17T17:50:54.021Z,8.23
2023-05-17T17:53:22.119Z,6.40
2023-05-17T17:55:49.128Z,4.15
2023-05-17T17:58:16.162Z,5.50
2023-05-17T18:00:43.129Z,6.00
2023-05-17T18:03:10.177Z,6.07
2023-05-17T18:05:37.274Z,4.65
2023-05-17T18:08:05.826Z,7.68
2023-05-17T18:10:33.005Z,5.47
2023-05-17T18:13:00.000Z,6.50
2023-05-17T18:15:27.060Z,5.63
2023-05-17T18:17:54.861Z,8.50
2023-05-17T18:20:26.344Z,6.10
2023-05-17T18:22:53.483Z,6.50
2023-05-17T18:25:21.995Z,8.55
2023-05-17T18:27:48.972Z,7.18
2023-05-17T18:30:16.982Z,7.90
2023-05-17T18:32:44.122Z,8.15
2023-05-17T18:35:11.348Z,11.60
2023-05-17T18:37:38.317Z,7.60
2023-05-17T18:40:06.667Z,9.68
2023-05-17T18:42:34.961Z,9.43
2023-05-17T18:45:01.937Z,6.88
2023-05-17T18:47:28.987Z,7.13
2023-05-17T18:49:56.267Z,8.90
2023-05-17T18:52:23.332Z,9.18
2023-05-17T18:54:50.581Z,9.82
2023-05-17T18:57:17.663Z,7.93
2023-05-17T18:59:46.192Z,9.70
2023-05-17T19:02:13.196Z,10.75
2023-05-17T19:04:40.479Z,8.90
2023-05-17T19:07:07.705Z,14.07
2023-05-17T19:09:34.716Z,10.30
2023-05-17T19:12:01.825Z,8.50
2023-05-17T19:14:28.844Z,9.00
2023-05-17T19:16:57.268Z,10.38
2023-05-17T19:19:24.754Z,7.20
2023-05-17T19:21:51.761Z,8.63
2023-05-17T19:24:18.730Z,14.32
2023-05-17T19:26:45.751Z,10.63
2023-05-17T19:29:12.732Z,10.75
2023-05-17T19:31:39.656Z,9.38
2023-05-17T19:34:07.939Z,13.40
2023-05-17T19:39:01.700Z,10.45
2023-05-17T19:41:28.794Z,9.30
2023-05-17T19:43:55.977Z,10.98
2023-05-17T19:46:22.975Z,8.75
2023-05-17T19:48:50.054Z,9.35
2023-05-17T19:51:18.565Z,8.98
2023-05-17T19:53:53.392Z,8.05
2023-05-17T19:56:21.540Z,6.82
2023-05-17T19:58:48.600Z,10.98
2023-05-17T20:01:15.633Z,8.65
2023-05-17T20:03:42.724Z,11.43
2023-05-17T20:06:14.215Z,8.07
2023-05-17T20:08:42.744Z,10.13
2023-05-17T20:11:09.971Z,11.52
2023-05-17T20:13:40.430Z,10.10
2023-05-17T20:16:12.686Z,9.30
2023-05-17T20:18:42.415Z,7.20
2023-05-17T20:21:11.297Z,8.82
2023-05-17T20:23:38.499Z,8.30
2023-05-17T20:26:07.002Z,6.43
2023-05-17T20:28:34.169Z,9.07
2023-05-17T20:31:01.102Z,9.38
2023-05-17T20:33:28.199Z,2.40
2023-05-17T20:35:55.204Z,3.55
2023-05-17T20:38:22.128Z,4.88
2023-05-17T20:40:49.201Z,1.77
2023-05-17T20:43:17.736Z,2.78
2023-05-17T20:45:45.966Z,2.28
2023-05-17T20:50:39.884Z,2.67
2023-05-17T20:53:06.942Z,3.00
2023-05-17T20:55:33.913Z,5.53
2023-05-17T20:58:01.310Z,7.00
2023-05-17T21:00:29.986Z,3.80
2023-05-17T21:02:57.255Z,4.20
2023-05-17T21:05:24.319Z,2.67
2023-05-17T21:07:51.314Z,5.97
2023-05-17T21:10:18.486Z,3.92
2023-05-17T21:12:45.393Z,4.18
2023-05-17T21:15:16.687Z,3.67
2023-05-17T21:17:45.774Z,4.82
2023-05-17T21:20:13.386Z,2.60
2023-05-17T21:22:40.467Z,3.88
2023-05-17T21:25:08.840Z,1.35
2023-05-17T21:30:02.619Z,3.90
2023-05-17T21:32:29.713Z,4.22
2023-05-17T21:34:59.671Z,2.53
2023-05-17T21:37:26.917Z,4.30
2023-05-17T21:39:53.806Z,5.38
2023-05-17T21:42:21.418Z,6.13
2023-05-17T21:44:48.433Z,4.57
2023-05-17T21:47:15.537Z,3.78
2023-05-17T21:49:42.483Z,2.38
2023-05-17T21:52:10.769Z,4.53
2023-05-17T21:54:37.816Z,2.33
2023-05-17T21:57:05.118Z,4.05
2023-05-17T21:59:32.112Z,10.55
2023-05-17T22:01:59.049Z,1.50
2023-05-17T22:04:26.494Z,2.30
2023-05-17T22:06:53.779Z,2.92
2023-05-17T22:09:23.044Z,4.82
2023-05-17T22:11:50.213Z,5.28
2023-05-17T22:14:17.326Z,6.15
2023-05-17T22:16:44.533Z,3.30
2023-05-17T22:19:11.469Z,2.25
2023-05-17T22:21:38.446Z,5.00
2023-05-17T22:24:06.795Z,4.38
2023-05-17T22:26:36.291Z,3.53
2023-05-17T22:29:03.753Z,3.83
2023-05-17T22:31:31.689Z,3.03
2023-05-17T22:33:58.737Z,1.63
2023-05-17T22:36:26.707Z,2.83
2023-05-17T22:38:53.725Z,1.88
2023-05-17T22:41:21.680Z,3.13
2023-05-17T22:43:50.025Z,6.25
2023-05-17T22:48:44.115Z,3.53
2023-05-17T22:51:12.670Z,2.50
2023-05-17T22:53:39.613Z,5.22
2023-05-17T22:56:06.766Z,2.53
2023-05-17T22:58:33.786Z,5.70
2023-05-17T23:01:02.181Z,3.53
2023-05-17T23:03:29.357Z,3.08
2023-05-17T23:06:02.919Z,4.70
2023-05-17T23:08:30.341Z,2.58
2023-05-17T23:10:58.520Z,1.85
2023-05-17T23:13:26.097Z,3.85
2023-05-17T23:15:53.522Z,1.50
2023-05-17T23:18:21.844Z,1.83
2023-05-17T23:23:16.386Z,1.20
2023-05-17T23:25:44.908Z,1.15
2023-05-17T23:28:14.550Z,3.67
2023-05-17T23:30:41.551Z,0.65
2023-05-17T23:33:08.548Z,0.70
2023-05-17T23:35:36.934Z,1.02
2023-05-17T23:40:31.134Z,0.73
2023-05-17T23:42:58.211Z,0.50
2023-05-17T23:45:25.411Z,0.57
2023-05-17T23:47:52.868Z,0.50
2023-05-17T23:50:19.980Z,1.38
2023-05-17T23:52:48.368Z,1.10
2023-05-17T23:55:15.347Z,0.30
2023-05-17T23:57:42.568Z,0.60
